sensor_id;sensor_type;location;lat;lon;timestamp;pressure;altitude;pressure_sealevel;temperature;humidity
12793;BME280;6460;42.684;23.260;2023-05-02T00:01:54;94863.75;;;13.68;75.67
12793;BME280;6460;42.684;23.260;2023-05-02T00:04:21;94862.03;;;13.57;75.96
12793;BME280;6460;42.684;23.260;2023-05-02T00:06:51;94858.53;;;13.23;76.77
12793;BME280;6460;42.684;23.260;2023-05-02T00:09:19;94866.59;;;13.49;76.02
12793;BME280;6460;42.684;23.260;2023-05-02T00:11:46;94861.09;;;13.42;75.97
12793;BME280;6460;42.684;23.260;2023-05-02T00:14:13;94858.06;;;13.17;77.12
12793;BME280;6460;42.684;23.260;2023-05-02T00:16:40;94861.59;;;12.99;79.24
12793;BME280;6460;42.684;23.260;2023-05-02T00:19:07;94856.41;;;12.87;79.20
12793;BME280;6460;42.684;23.260;2023-05-02T00:21:35;94860.53;;;13.03;78.91
12793;BME280;6460;42.684;23.260;2023-05-02T00:24:05;94870.53;;;13.03;79.27
12793;BME280;6460;42.684;23.260;2023-05-02T00:26:32;94873.97;;;13.26;78.10
12793;BME280;6460;42.684;23.260;2023-05-02T00:28:59;94891.00;;;12.36;81.63
12793;BME280;6460;42.684;23.260;2023-05-02T00:31:27;94892.25;;;12.19;83.46
12793;BME280;6460;42.684;23.260;2023-05-02T00:33:55;94887.91;;;12.56;82.08
12793;BME280;6460;42.684;23.260;2023-05-02T00:36:23;94894.19;;;12.64;81.65
12793;BME280;6460;42.684;23.260;2023-05-02T00:38:51;94895.94;;;12.76;81.07
12793;BME280;6460;42.684;23.260;2023-05-02T00:41:20;94902.44;;;12.97;80.29
12793;BME280;6460;42.684;23.260;2023-05-02T00:43:47;94905.03;;;13.13;79.03
12793;BME280;6460;42.684;23.260;2023-05-02T00:46:14;94896.31;;;13.23;79.05
12793;BME280;6460;42.684;23.260;2023-05-02T00:48:42;94902.56;;;13.31;78.50
12793;BME280;6460;42.684;23.260;2023-05-02T00:51:09;94904.56;;;13.34;77.32
12793;BME280;6460;42.684;23.260;2023-05-02T00:53:38;94899.69;;;13.43;76.88
12793;BME280;6460;42.684;23.260;2023-05-02T00:56:06;94902.00;;;13.44;76.85
12793;BME280;6460;42.684;23.260;2023-05-02T00:58:35;94902.84;;;13.48;77.10
12793;BME280;6460;42.684;23.260;2023-05-02T01:01:19;94897.75;;;13.43;76.91
12793;BME280;6460;42.684;23.260;2023-05-02T01:04:01;94891.13;;;13.11;78.08
12793;BME280;6460;42.684;23.260;2023-05-02T01:06:47;94888.63;;;13.25;77.08
12793;BME280;6460;42.684;23.260;2023-05-02T01:09:39;94894.41;;;13.23;76.94
12793;BME280;6460;42.684;23.260;2023-05-02T01:12:14;94880.63;;;13.32;76.84
12793;BME280;6460;42.684;23.260;2023-05-02T01:14:52;94884.84;;;13.30;77.12
12793;BME280;6460;42.684;23.260;2023-05-02T01:17:23;94875.66;;;12.85;79.48
12793;BME280;6460;42.684;23.260;2023-05-02T01:19:55;94876.22;;;12.71;79.60
12793;BME280;6460;42.684;23.260;2023-05-02T01:22:24;94872.44;;;12.76;82.18
12793;BME280;6460;42.684;23.260;2023-05-02T01:25:00;94862.97;;;12.86;81.68
12793;BME280;6460;42.684;23.260;2023-05-02T01:27:38;94863.25;;;12.81;82.06
12793;BME280;6460;42.684;23.260;2023-05-02T01:30:11;94857.00;;;12.73;82.91
12793;BME280;6460;42.684;23.260;2023-05-02T01:32:40;94857.41;;;12.52;83.52
12793;BME280;6460;42.684;23.260;2023-05-02T01:35:10;94868.72;;;12.61;83.75
12793;BME280;6460;42.684;23.260;2023-05-02T01:37:40;94866.88;;;12.65;83.68
12793;BME280;6460;42.684;23.260;2023-05-02T01:40:10;94871.81;;;12.60;83.54
12793;BME280;6460;42.684;23.260;2023-05-02T01:42:38;94876.16;;;12.45;83.42
12793;BME280;6460;42.684;23.260;2023-05-02T01:45:07;94880.28;;;12.39;83.93
12793;BME280;6460;42.684;23.260;2023-05-02T01:47:36;94886.50;;;12.20;84.77
12793;BME280;6460;42.684;23.260;2023-05-02T01:50:07;94887.84;;;12.30;85.98
12793;BME280;6460;42.684;23.260;2023-05-02T01:52:36;94889.75;;;12.30;85.47
12793;BME280;6460;42.684;23.260;2023-05-02T01:55:05;94877.84;;;12.31;85.32
12793;BME280;6460;42.684;23.260;2023-05-02T01:57:36;94872.84;;;12.33;85.55
12793;BME280;6460;42.684;23.260;2023-05-02T02:00:05;94873.34;;;12.38;85.44
12793;BME280;6460;42.684;23.260;2023-05-02T02:02:36;94871.97;;;12.25;85.79
12793;BME280;6460;42.684;23.260;2023-05-02T02:05:07;94876.88;;;12.42;85.20
12793;BME280;6460;42.684;23.260;2023-05-02T02:07:35;94877.84;;;12.53;84.83
12793;BME280;6460;42.684;23.260;2023-05-02T02:10:03;94877.47;;;12.32;85.51
12793;BME280;6460;42.684;23.260;2023-05-02T02:12:35;94872.94;;;12.36;85.75
12793;BME280;6460;42.684;23.260;2023-05-02T02:15:08;94869.91;;;12.41;85.45
12793;BME280;6460;42.684;23.260;2023-05-02T02:17:40;94869.44;;;12.36;84.57
12793;BME280;6460;42.684;23.260;2023-05-02T02:20:10;94873.88;;;12.25;86.01
12793;BME280;6460;42.684;23.260;2023-05-02T02:22:40;94874.78;;;12.32;85.47
12793;BME280;6460;42.684;23.260;2023-05-02T02:25:11;94876.69;;;12.54;84.48
12793;BME280;6460;42.684;23.260;2023-05-02T02:27:40;94874.41;;;12.11;85.47
12793;BME280;6460;42.684;23.260;2023-05-02T02:30:08;94882.00;;;12.47;84.47
12793;BME280;6460;42.684;23.260;2023-05-02T02:32:35;94877.47;;;12.32;84.44
12793;BME280;6460;42.684;23.260;2023-05-02T02:35:04;94890.94;;;12.32;84.73
12793;BME280;6460;42.684;23.260;2023-05-02T02:37:36;94894.44;;;12.55;83.32
12793;BME280;6460;42.684;23.260;2023-05-02T02:40:11;94895.41;;;12.02;85.24
12793;BME280;6460;42.684;23.260;2023-05-02T02:42:44;94892.88;;;12.12;85.98
12793;BME280;6460;42.684;23.260;2023-05-02T02:45:22;94894.00;;;12.31;84.18
12793;BME280;6460;42.684;23.260;2023-05-02T02:48:01;94896.84;;;12.38;84.38
12793;BME280;6460;42.684;23.260;2023-05-02T02:50:34;94897.44;;;12.08;86.25
12793;BME280;6460;42.684;23.260;2023-05-02T02:53:04;94900.19;;;12.31;84.83
12793;BME280;6460;42.684;23.260;2023-05-02T02:55:37;94898.81;;;11.99;85.78
12793;BME280;6460;42.684;23.260;2023-05-02T02:58:18;94915.31;;;11.78;86.11
12793;BME280;6460;42.684;23.260;2023-05-02T03:00:46;94920.41;;;11.64;88.38
12793;BME280;6460;42.684;23.260;2023-05-02T03:03:15;94914.69;;;11.50;88.20
12793;BME280;6460;42.684;23.260;2023-05-02T03:05:46;94916.50;;;11.27;89.13
12793;BME280;6460;42.684;23.260;2023-05-02T03:08:14;94922.16;;;11.22;89.53
12793;BME280;6460;42.684;23.260;2023-05-02T03:10:41;94919.91;;;11.08;89.91
12793;BME280;6460;42.684;23.260;2023-05-02T03:13:09;94929.09;;;11.23;90.17
12793;BME280;6460;42.684;23.260;2023-05-02T03:18:40;94930.75;;;11.46;89.08
12793;BME280;6460;42.684;23.260;2023-05-02T03:21:10;94934.44;;;11.73;88.36
12793;BME280;6460;42.684;23.260;2023-05-02T03:23:37;94927.25;;;11.96;86.83
12793;BME280;6460;42.684;23.260;2023-05-02T03:26:04;94930.25;;;11.76;88.02
12793;BME280;6460;42.684;23.260;2023-05-02T03:28:32;94931.53;;;11.82;87.80
12793;BME280;6460;42.684;23.260;2023-05-02T03:30:59;94936.97;;;11.66;88.64
12793;BME280;6460;42.684;23.260;2023-05-02T03:33:27;94938.28;;;11.91;88.56
12793;BME280;6460;42.684;23.260;2023-05-02T03:35:54;94932.75;;;12.03;86.90
12793;BME280;6460;42.684;23.260;2023-05-02T03:38:23;94937.38;;;12.03;86.33
12793;BME280;6460;42.684;23.260;2023-05-02T03:40:51;94934.38;;;12.27;85.09
12793;BME280;6460;42.684;23.260;2023-05-02T03:43:19;94936.47;;;12.37;84.25
12793;BME280;6460;42.684;23.260;2023-05-02T03:45:46;94934.59;;;12.41;84.03
12793;BME280;6460;42.684;23.260;2023-05-02T03:48:14;94933.97;;;12.48;83.54
12793;BME280;6460;42.684;23.260;2023-05-02T03:50:41;94941.41;;;12.54;82.88
12793;BME280;6460;42.684;23.260;2023-05-02T03:53:09;94938.63;;;12.51;83.32
12793;BME280;6460;42.684;23.260;2023-05-02T03:55:40;94942.81;;;12.48;83.87
12793;BME280;6460;42.684;23.260;2023-05-02T03:58:09;94940.38;;;12.40;83.87
12793;BME280;6460;42.684;23.260;2023-05-02T04:00:36;94943.28;;;12.50;82.64
12793;BME280;6460;42.684;23.260;2023-05-02T04:03:03;94945.38;;;12.18;84.95
12793;BME280;6460;42.684;23.260;2023-05-02T04:05:31;94946.56;;;12.21;84.48
12793;BME280;6460;42.684;23.260;2023-05-02T04:08:00;94947.47;;;12.09;83.81
12793;BME280;6460;42.684;23.260;2023-05-02T04:10:27;94938.50;;;12.21;85.06
12793;BME280;6460;42.684;23.260;2023-05-02T04:12:56;94948.91;;;12.23;84.45
12793;BME280;6460;42.684;23.260;2023-05-02T04:15:23;94945.84;;;12.43;84.33
12793;BME280;6460;42.684;23.260;2023-05-02T04:17:50;94943.66;;;12.30;85.01
12793;BME280;6460;42.684;23.260;2023-05-02T04:20:18;94936.91;;;12.39;84.85
12793;BME280;6460;42.684;23.260;2023-05-02T04:22:45;94931.06;;;12.56;84.91
12793;BME280;6460;42.684;23.260;2023-05-02T04:25:15;94934.06;;;12.32;84.95
12793;BME280;6460;42.684;23.260;2023-05-02T04:27:42;94936.72;;;12.51;89.65
12793;BME280;6460;42.684;23.260;2023-05-02T04:30:12;94932.19;;;12.55;87.66
12793;BME280;6460;42.684;23.260;2023-05-02T04:32:39;94938.66;;;12.73;84.54
12793;BME280;6460;42.684;23.260;2023-05-02T04:35:07;94936.38;;;12.76;83.92
12793;BME280;6460;42.684;23.260;2023-05-02T04:37:35;94935.72;;;12.59;84.05
12793;BME280;6460;42.684;23.260;2023-05-02T04:40:03;94934.81;;;12.74;83.43
12793;BME280;6460;42.684;23.260;2023-05-02T04:42:31;94934.28;;;12.88;82.52
12793;BME280;6460;42.684;23.260;2023-05-02T04:44:59;94941.06;;;12.79;82.59
12793;BME280;6460;42.684;23.260;2023-05-02T04:47:27;94936.59;;;12.90;81.47
12793;BME280;6460;42.684;23.260;2023-05-02T04:49:55;94933.19;;;12.93;82.10
12793;BME280;6460;42.684;23.260;2023-05-02T04:52:22;94933.13;;;13.12;80.42
12793;BME280;6460;42.684;23.260;2023-05-02T04:54:50;94929.03;;;12.99;81.06
12793;BME280;6460;42.684;23.260;2023-05-02T04:57:17;94937.78;;;12.89;80.79
12793;BME280;6460;42.684;23.260;2023-05-02T04:59:44;94931.91;;;13.32;79.63
12793;BME280;6460;42.684;23.260;2023-05-02T05:02:10;94938.03;;;13.29;79.48
12793;BME280;6460;42.684;23.260;2023-05-02T05:04:39;94932.53;;;13.48;78.89
12793;BME280;6460;42.684;23.260;2023-05-02T05:07:06;94933.31;;;13.49;78.84
12793;BME280;6460;42.684;23.260;2023-05-02T05:09:33;94932.25;;;13.57;77.61
12793;BME280;6460;42.684;23.260;2023-05-02T05:12:00;94941.13;;;13.84;76.58
12793;BME280;6460;42.684;23.260;2023-05-02T05:14:27;94937.41;;;13.39;76.95
12793;BME280;6460;42.684;23.260;2023-05-02T05:16:55;94938.44;;;13.57;76.65
12793;BME280;6460;42.684;23.260;2023-05-02T05:19:23;94948.78;;;13.78;75.64
12793;BME280;6460;42.684;23.260;2023-05-02T05:21:52;94936.19;;;13.63;75.79
12793;BME280;6460;42.684;23.260;2023-05-02T05:24:19;94938.97;;;13.40;76.75
12793;BME280;6460;42.684;23.260;2023-05-02T05:26:46;94950.31;;;14.09;74.52
12793;BME280;6460;42.684;23.260;2023-05-02T05:29:12;94952.31;;;14.15;74.23
12793;BME280;6460;42.684;23.260;2023-05-02T05:31:40;94949.91;;;14.07;74.49
12793;BME280;6460;42.684;23.260;2023-05-02T05:34:07;94952.91;;;14.31;73.24
12793;BME280;6460;42.684;23.260;2023-05-02T05:36:34;94956.19;;;14.18;73.33
12793;BME280;6460;42.684;23.260;2023-05-02T05:39:04;94956.06;;;14.07;73.85
12793;BME280;6460;42.684;23.260;2023-05-02T05:44:18;94964.41;;;14.58;73.35
12793;BME280;6460;42.684;23.260;2023-05-02T05:46:46;94961.41;;;14.67;72.38
12793;BME280;6460;42.684;23.260;2023-05-02T05:49:14;94958.91;;;14.88;71.30
12793;BME280;6460;42.684;23.260;2023-05-02T05:51:42;94960.91;;;14.95;70.66
12793;BME280;6460;42.684;23.260;2023-05-02T05:54:11;94952.13;;;14.68;71.18
12793;BME280;6460;42.684;23.260;2023-05-02T05:56:38;94964.09;;;14.63;72.40
12793;BME280;6460;42.684;23.260;2023-05-02T05:59:06;94968.66;;;15.00;70.76
12793;BME280;6460;42.684;23.260;2023-05-02T06:01:33;94975.59;;;14.97;69.93
12793;BME280;6460;42.684;23.260;2023-05-02T06:04:01;94977.44;;;15.30;69.12
12793;BME280;6460;42.684;23.260;2023-05-02T06:06:29;94971.69;;;14.91;69.07
12793;BME280;6460;42.684;23.260;2023-05-02T06:08:57;94979.63;;;15.14;68.71
12793;BME280;6460;42.684;23.260;2023-05-02T06:11:26;94978.03;;;15.09;68.80
12793;BME280;6460;42.684;23.260;2023-05-02T06:13:53;94972.81;;;14.87;69.08
12793;BME280;6460;42.684;23.260;2023-05-02T06:16:21;94965.16;;;15.43;68.26
12793;BME280;6460;42.684;23.260;2023-05-02T06:18:50;94968.25;;;15.45;66.27
12793;BME280;6460;42.684;23.260;2023-05-02T06:21:18;94966.41;;;15.49;66.20
12793;BME280;6460;42.684;23.260;2023-05-02T06:23:46;94964.97;;;15.66;65.19
12793;BME280;6460;42.684;23.260;2023-05-02T06:26:13;94966.81;;;15.07;66.75
12793;BME280;6460;42.684;23.260;2023-05-02T06:28:42;94967.81;;;15.36;65.78
12793;BME280;6460;42.684;23.260;2023-05-02T06:31:10;94967.97;;;15.57;65.42
12793;BME280;6460;42.684;23.260;2023-05-02T06:33:37;94963.81;;;15.70;64.27
12793;BME280;6460;42.684;23.260;2023-05-02T06:36:05;94968.09;;;15.71;63.62
12793;BME280;6460;42.684;23.260;2023-05-02T06:38:32;94968.47;;;15.73;62.67
12793;BME280;6460;42.684;23.260;2023-05-02T06:41:00;94969.66;;;15.72;62.13
12793;BME280;6460;42.684;23.260;2023-05-02T06:43:27;94969.84;;;16.15;61.89
12793;BME280;6460;42.684;23.260;2023-05-02T06:45:55;94969.44;;;16.06;61.38
12793;BME280;6460;42.684;23.260;2023-05-02T06:48:23;94963.47;;;15.75;62.01
12793;BME280;6460;42.684;23.260;2023-05-02T06:50:51;94976.19;;;15.68;62.46
12793;BME280;6460;42.684;23.260;2023-05-02T06:53:18;94964.38;;;16.01;62.01
12793;BME280;6460;42.684;23.260;2023-05-02T06:55:46;94968.63;;;15.98;60.47
12793;BME280;6460;42.684;23.260;2023-05-02T06:58:14;94969.44;;;16.06;60.69
12793;BME280;6460;42.684;23.260;2023-05-02T07:00:42;94968.31;;;16.14;60.51
12793;BME280;6460;42.684;23.260;2023-05-02T07:03:10;94965.59;;;16.14;59.57
12793;BME280;6460;42.684;23.260;2023-05-02T07:05:38;94968.78;;;16.40;59.06
12793;BME280;6460;42.684;23.260;2023-05-02T07:08:06;94965.75;;;16.53;59.90
12793;BME280;6460;42.684;23.260;2023-05-02T07:10:33;94969.75;;;16.90;56.74
12793;BME280;6460;42.684;23.260;2023-05-02T07:13:01;94960.22;;;16.21;58.07
12793;BME280;6460;42.684;23.260;2023-05-02T07:15:28;94967.81;;;17.09;56.98
12793;BME280;6460;42.684;23.260;2023-05-02T07:17:56;94971.66;;;16.86;57.32
12793;BME280;6460;42.684;23.260;2023-05-02T07:20:25;94969.38;;;17.38;55.62
12793;BME280;6460;42.684;23.260;2023-05-02T07:22:52;94970.56;;;17.65;54.51
12793;BME280;6460;42.684;23.260;2023-05-02T07:25:20;94965.50;;;17.39;53.80
12793;BME280;6460;42.684;23.260;2023-05-02T07:27:48;94968.22;;;17.50;52.45
12793;BME280;6460;42.684;23.260;2023-05-02T07:30:15;94973.66;;;17.50;52.75
12793;BME280;6460;42.684;23.260;2023-05-02T07:32:43;94968.22;;;17.32;53.06
12793;BME280;6460;42.684;23.260;2023-05-02T07:35:11;94959.66;;;17.86;52.33
12793;BME280;6460;42.684;23.260;2023-05-02T07:37:39;94960.06;;;17.71;51.22
12793;BME280;6460;42.684;23.260;2023-05-02T07:40:08;94958.53;;;17.41;50.81
12793;BME280;6460;42.684;23.260;2023-05-02T07:42:35;94967.34;;;18.13;50.13
12793;BME280;6460;42.684;23.260;2023-05-02T07:45:03;94970.56;;;17.58;50.29
12793;BME280;6460;42.684;23.260;2023-05-02T07:47:31;94965.84;;;17.94;50.68
12793;BME280;6460;42.684;23.260;2023-05-02T07:49:58;94971.19;;;18.19;49.89
12793;BME280;6460;42.684;23.260;2023-05-02T07:52:26;94967.47;;;18.78;51.91
12793;BME280;6460;42.684;23.260;2023-05-02T07:54:55;94973.72;;;18.75;48.75
12793;BME280;6460;42.684;23.260;2023-05-02T07:57:22;94971.50;;;19.15;48.11
12793;BME280;6460;42.684;23.260;2023-05-02T07:59:50;94966.94;;;18.25;49.13
12793;BME280;6460;42.684;23.260;2023-05-02T08:02:17;94954.69;;;18.68;47.51
12793;BME280;6460;42.684;23.260;2023-05-02T08:04:46;94968.25;;;19.34;46.72
12793;BME280;6460;42.684;23.260;2023-05-02T08:07:13;94970.06;;;18.99;47.35
12793;BME280;6460;42.684;23.260;2023-05-02T08:09:41;94956.81;;;19.57;46.29
12793;BME280;6460;42.684;23.260;2023-05-02T08:12:10;94959.38;;;19.74;45.45
12793;BME280;6460;42.684;23.260;2023-05-02T08:14:37;94958.53;;;19.33;46.71
12793;BME280;6460;42.684;23.260;2023-05-02T08:17:05;94955.31;;;19.89;45.01
12793;BME280;6460;42.684;23.260;2023-05-02T08:19:32;94960.41;;;20.25;45.60
12793;BME280;6460;42.684;23.260;2023-05-02T08:21:59;94963.28;;;20.48;44.35
12793;BME280;6460;42.684;23.260;2023-05-02T08:24:27;94955.97;;;20.68;43.29
12793;BME280;6460;42.684;23.260;2023-05-02T08:26:56;94958.28;;;20.05;42.85
12793;BME280;6460;42.684;23.260;2023-05-02T08:29:24;94960.84;;;20.20;43.23
12793;BME280;6460;42.684;23.260;2023-05-02T08:31:52;94960.38;;;20.28;43.50
12793;BME280;6460;42.684;23.260;2023-05-02T08:34:19;94960.44;;;20.85;42.99
12793;BME280;6460;42.684;23.260;2023-05-02T08:36:46;94952.34;;;19.77;44.06
12793;BME280;6460;42.684;23.260;2023-05-02T08:39:14;94957.41;;;19.78;44.44
12793;BME280;6460;42.684;23.260;2023-05-02T08:41:41;94960.28;;;19.61;44.61
12793;BME280;6460;42.684;23.260;2023-05-02T08:44:11;94964.56;;;20.97;42.54
12793;BME280;6460;42.684;23.260;2023-05-02T08:46:41;94960.94;;;21.34;41.97
12793;BME280;6460;42.684;23.260;2023-05-02T08:49:09;94951.78;;;21.44;40.22
12793;BME280;6460;42.684;23.260;2023-05-02T08:51:37;94953.09;;;21.59;39.33
12793;BME280;6460;42.684;23.260;2023-05-02T08:54:08;94958.06;;;20.27;41.73
12793;BME280;6460;42.684;23.260;2023-05-02T08:56:37;94953.81;;;21.13;40.83
12793;BME280;6460;42.684;23.260;2023-05-02T08:59:05;94950.06;;;20.43;41.67
12793;BME280;6460;42.684;23.260;2023-05-02T09:01:34;94948.28;;;20.90;40.17
12793;BME280;6460;42.684;23.260;2023-05-02T09:04:03;94949.97;;;21.07;39.00
12793;BME280;6460;42.684;23.260;2023-05-02T09:06:30;94951.78;;;20.30;41.35
12793;BME280;6460;42.684;23.260;2023-05-02T09:08:59;94944.09;;;20.82;40.38
12793;BME280;6460;42.684;23.260;2023-05-02T09:11:27;94944.25;;;20.41;42.09
12793;BME280;6460;42.684;23.260;2023-05-02T09:13:54;94950.97;;;20.33;41.46
12793;BME280;6460;42.684;23.260;2023-05-02T09:16:24;94952.81;;;20.73;40.28
12793;BME280;6460;42.684;23.260;2023-05-02T09:18:54;94941.78;;;20.50;40.84
12793;BME280;6460;42.684;23.260;2023-05-02T09:21:25;94946.81;;;20.82;53.75
12793;BME280;6460;42.684;23.260;2023-05-02T09:23:54;94943.06;;;20.99;49.42
12793;BME280;6460;42.684;23.260;2023-05-02T09:26:24;94937.97;;;20.44;41.03
12793;BME280;6460;42.684;23.260;2023-05-02T09:28:52;94942.88;;;21.13;40.15
12793;BME280;6460;42.684;23.260;2023-05-02T09:31:21;94934.53;;;21.47;39.93
12793;BME280;6460;42.684;23.260;2023-05-02T09:33:50;94937.59;;;21.95;38.65
12793;BME280;6460;42.684;23.260;2023-05-02T09:36:19;94925.00;;;22.01;38.23
12793;BME280;6460;42.684;23.260;2023-05-02T09:38:49;94920.84;;;21.70;37.32
12793;BME280;6460;42.684;23.260;2023-05-02T09:41:17;94931.09;;;21.43;39.73
12793;BME280;6460;42.684;23.260;2023-05-02T09:43:54;94936.59;;;20.89;38.93
12793;BME280;6460;42.684;23.260;2023-05-02T09:46:22;94931.75;;;21.27;37.84
12793;BME280;6460;42.684;23.260;2023-05-02T09:48:53;94926.03;;;21.41;38.09
12793;BME280;6460;42.684;23.260;2023-05-02T09:51:21;94928.06;;;20.84;37.24
12793;BME280;6460;42.684;23.260;2023-05-02T09:53:51;94922.59;;;20.84;37.77
12793;BME280;6460;42.684;23.260;2023-05-02T09:56:18;94921.56;;;21.01;37.83
12793;BME280;6460;42.684;23.260;2023-05-02T09:58:45;94918.31;;;21.36;37.22
12793;BME280;6460;42.684;23.260;2023-05-02T10:01:17;94916.69;;;21.62;36.97
12793;BME280;6460;42.684;23.260;2023-05-02T10:03:46;94911.22;;;21.62;36.36
12793;BME280;6460;42.684;23.260;2023-05-02T10:06:14;94906.09;;;21.64;36.54
12793;BME280;6460;42.684;23.260;2023-05-02T10:08:42;94904.97;;;21.61;36.71
12793;BME280;6460;42.684;23.260;2023-05-02T10:11:13;94902.13;;;21.69;36.47
12793;BME280;6460;42.684;23.260;2023-05-02T10:13:42;94901.47;;;21.61;36.07
12793;BME280;6460;42.684;23.260;2023-05-02T10:16:11;94872.47;;;21.44;36.67
12793;BME280;6460;42.684;23.260;2023-05-02T10:18:42;94904.25;;;20.84;37.22
12793;BME280;6460;42.684;23.260;2023-05-02T10:21:16;94904.75;;;21.02;36.70
12793;BME280;6460;42.684;23.260;2023-05-02T10:23:44;94906.63;;;20.82;36.76
12793;BME280;6460;42.684;23.260;2023-05-02T10:26:14;94883.53;;;21.14;35.64
12793;BME280;6460;42.684;23.260;2023-05-02T10:28:42;94891.44;;;21.04;36.83
12793;BME280;6460;42.684;23.260;2023-05-02T10:31:10;94878.50;;;21.12;36.34
12793;BME280;6460;42.684;23.260;2023-05-02T10:33:39;94882.22;;;21.45;34.92
12793;BME280;6460;42.684;23.260;2023-05-02T10:36:07;94879.34;;;21.75;35.01
12793;BME280;6460;42.684;23.260;2023-05-02T10:38:35;94873.41;;;21.57;34.94
12793;BME280;6460;42.684;23.260;2023-05-02T10:41:07;94869.19;;;21.29;34.49
12793;BME280;6460;42.684;23.260;2023-05-02T10:43:37;94875.28;;;21.17;34.52
12793;BME280;6460;42.684;23.260;2023-05-02T10:46:28;94876.88;;;21.38;35.64
12793;BME280;6460;42.684;23.260;2023-05-02T10:49:00;94863.94;;;21.61;33.98
12793;BME280;6460;42.684;23.260;2023-05-02T10:51:28;94859.69;;;20.87;34.10
12793;BME280;6460;42.684;23.260;2023-05-02T10:54:23;94869.97;;;21.30;34.75
12793;BME280;6460;42.684;23.260;2023-05-02T10:57:04;94867.88;;;21.80;33.92
12793;BME280;6460;42.684;23.260;2023-05-02T10:59:35;94858.06;;;21.63;34.97
12793;BME280;6460;42.684;23.260;2023-05-02T11:02:03;94859.50;;;22.66;33.45
12793;BME280;6460;42.684;23.260;2023-05-02T11:04:59;94853.81;;;23.09;31.37
12793;BME280;6460;42.684;23.260;2023-05-02T11:07:27;94846.59;;;23.31;32.10
12793;BME280;6460;42.684;23.260;2023-05-02T11:10:24;94855.00;;;23.56;31.29
12793;BME280;6460;42.684;23.260;2023-05-02T11:12:53;94849.88;;;23.71;29.58
12793;BME280;6460;42.684;23.260;2023-05-02T11:21:33;94848.47;;;24.24;28.69
12793;BME280;6460;42.684;23.260;2023-05-02T11:24:37;94839.59;;;23.75;29.09
12793;BME280;6460;42.684;23.260;2023-05-02T11:27:37;94834.28;;;24.26;29.04
12793;BME280;6460;42.684;23.260;2023-05-02T11:30:05;94834.69;;;24.11;29.20
12793;BME280;6460;42.684;23.260;2023-05-02T11:35:35;94824.97;;;24.73;28.70
12793;BME280;6460;42.684;23.260;2023-05-02T11:38:03;94832.00;;;24.37;29.41
12793;BME280;6460;42.684;23.260;2023-05-02T11:40:31;94819.72;;;25.04;28.47
12793;BME280;6460;42.684;23.260;2023-05-02T11:42:59;94822.69;;;23.48;30.52
12793;BME280;6460;42.684;23.260;2023-05-02T11:45:31;94817.59;;;24.33;29.62
12793;BME280;6460;42.684;23.260;2023-05-02T11:48:00;94823.75;;;24.37;28.94
12793;BME280;6460;42.684;23.260;2023-05-02T11:50:28;94817.47;;;24.36;29.17
12793;BME280;6460;42.684;23.260;2023-05-02T11:52:56;94820.13;;;24.27;28.38
12793;BME280;6460;42.684;23.260;2023-05-02T11:55:24;94807.28;;;24.37;28.76
12793;BME280;6460;42.684;23.260;2023-05-02T11:57:51;94814.31;;;24.63;28.36
12793;BME280;6460;42.684;23.260;2023-05-02T12:00:18;94811.19;;;23.82;29.62
12793;BME280;6460;42.684;23.260;2023-05-02T12:02:52;94803.94;;;23.88;29.93
12793;BME280;6460;42.684;23.260;2023-05-02T12:05:27;94790.06;;;24.07;29.40
12793;BME280;6460;42.684;23.260;2023-05-02T12:07:56;94786.75;;;22.81;30.71
12793;BME280;6460;42.684;23.260;2023-05-02T12:10:35;94793.81;;;23.27;30.74
12793;BME280;6460;42.684;23.260;2023-05-02T12:13:04;94790.06;;;22.89;30.71
12793;BME280;6460;42.684;23.260;2023-05-02T12:15:31;94786.06;;;22.93;31.29
12793;BME280;6460;42.684;23.260;2023-05-02T12:17:59;94779.81;;;23.38;31.05
12793;BME280;6460;42.684;23.260;2023-05-02T12:20:26;94776.44;;;23.01;31.23
12793;BME280;6460;42.684;23.260;2023-05-02T12:22:54;94765.16;;;22.99;30.99
12793;BME280;6460;42.684;23.260;2023-05-02T12:25:23;94781.41;;;22.58;31.97
12793;BME280;6460;42.684;23.260;2023-05-02T12:28:00;94776.34;;;23.21;31.21
12793;BME280;6460;42.684;23.260;2023-05-02T12:30:27;94775.06;;;23.26;30.24
12793;BME280;6460;42.684;23.260;2023-05-02T12:32:55;94766.59;;;23.49;30.31
12793;BME280;6460;42.684;23.260;2023-05-02T12:35:23;94759.00;;;22.79;30.62
12793;BME280;6460;42.684;23.260;2023-05-02T12:37:51;94756.72;;;22.42;31.73
12793;BME280;6460;42.684;23.260;2023-05-02T12:40:19;94745.22;;;22.66;31.11
12793;BME280;6460;42.684;23.260;2023-05-02T12:42:59;94746.16;;;23.21;30.12
12793;BME280;6460;42.684;23.260;2023-05-02T12:45:28;94730.06;;;23.52;29.74
12793;BME280;6460;42.684;23.260;2023-05-02T12:47:58;94727.72;;;23.66;29.37
12793;BME280;6460;42.684;23.260;2023-05-02T12:50:35;94728.00;;;23.56;28.84
12793;BME280;6460;42.684;23.260;2023-05-02T12:53:03;94727.81;;;23.63;28.30
12793;BME280;6460;42.684;23.260;2023-05-02T12:55:32;94730.34;;;23.70;28.37
12793;BME280;6460;42.684;23.260;2023-05-02T12:58:01;94719.19;;;23.19;28.58
12793;BME280;6460;42.684;23.260;2023-05-02T13:13:53;94698.66;;;24.45;27.25
12793;BME280;6460;42.684;23.260;2023-05-02T13:16:21;94717.69;;;24.27;27.49
12793;BME280;6460;42.684;23.260;2023-05-02T13:18:48;94716.50;;;24.28;27.63
12793;BME280;6460;42.684;23.260;2023-05-02T13:21:15;94705.28;;;24.60;27.70
12793;BME280;6460;42.684;23.260;2023-05-02T13:23:43;94713.66;;;25.59;27.05
12793;BME280;6460;42.684;23.260;2023-05-02T13:26:14;94699.34;;;25.95;26.17
12793;BME280;6460;42.684;23.260;2023-05-02T13:28:42;94709.72;;;26.53;25.69
12793;BME280;6460;42.684;23.260;2023-05-02T13:31:10;94707.09;;;26.09;25.49
12793;BME280;6460;42.684;23.260;2023-05-02T13:33:37;94704.78;;;26.08;25.42
12793;BME280;6460;42.684;23.260;2023-05-02T13:36:05;94704.59;;;25.71;26.01
12793;BME280;6460;42.684;23.260;2023-05-02T13:38:32;94696.47;;;26.29;25.32
12793;BME280;6460;42.684;23.260;2023-05-02T13:40:59;94708.53;;;25.49;25.26